Utsunomiya Airport
RJTU : now visible

Airfield :











YOU CAN JOIN US ON...

 
LOGIN :

Register | Disclaimer

   EN    FR    IT 

 









Legend :    VFR   Marginal VFR   IFR   Intensive IFR   Very Intensive IFR
Visi :
Ceiling :
>= 8 km
>= 3000ft
5 to 8 km
1000 to 3000 ft
1500m to 5 km
500 to 1000 ft
800 to 1500m
200 to 500 ft
< 800m
< 200 ft
Symbols :   Thunderstorms  Fog  Heavy snow  Heavy precipitations  Wind > 20 kt






- Airport Elevation : 334 ft
- IATA code : QUT


RJTU - Utsunomiya

CURRENT METAR :
  • 140108Z VRB02KT 9999 FEW020 SCT025 06/M02 Q1020 RMK 1SC020 3SC025 A3013

EXPIRED METARs :
  • 132331Z 35003KT 310V040 9999 SCT028 BKN030 03/M03 Q1021 RMK 3SC028 6SC030 A3017
  • 132228Z VRB02KT 9999 FEW025 SCT028 01/M03 Q1022 RMK 1SC025 3SC028 A3019

TAF N/A



MET'MAP, your aeronautical weather chart ! - Copyright ORBIFLY December 2007 - Disclaimer

ORBIFLY MET'MAP TEAM :

Programming & Development : Alexandra Zaïnal
Concept & original design : Baudouin d'Aumeries
Assistance for programming : Marc-Olivier Méhu
Technical & hardware support : Manuel Goepfert

Contact : metmap@orbifly.com




SOURCES & CREDITS :

   NOAA       Earth
Advisory